createdAt,value
2019-05-05T00:00:59.964Z,14.70
2019-05-05T00:03:38.730Z,21.00
2019-05-05T00:06:09.203Z,9.33
2019-05-05T00:08:39.552Z,16.80
2019-05-05T00:11:30.752Z,11.87
2019-05-05T00:14:17.555Z,14.33
2019-05-05T00:16:52.279Z,13.32
2019-05-05T00:19:30.687Z,12.80
2019-05-05T00:21:55.142Z,14.40
2019-05-05T00:24:25.637Z,17.93
2019-05-05T00:26:55.973Z,16.77
2019-05-05T00:29:26.325Z,13.40
2019-05-05T00:31:56.030Z,14.30
2019-05-05T00:34:26.282Z,13.90
2019-05-05T00:36:55.988Z,12.10
2019-05-05T00:39:26.232Z,11.97
2019-05-05T00:41:55.943Z,14.57
2019-05-05T00:44:26.343Z,18.63
2019-05-05T00:47:25.113Z,13.73
2019-05-05T00:49:56.337Z,12.43
2019-05-05T00:52:26.841Z,13.03
2019-05-05T00:54:56.519Z,11.57
2019-05-05T00:57:26.854Z,13.27
2019-05-05T00:59:57.191Z,17.50
2019-05-05T01:02:44.910Z,14.27
2019-05-05T01:05:25.436Z,20.67
2019-05-05T01:07:55.085Z,14.53
2019-05-05T01:10:25.683Z,15.47
2019-05-05T01:12:56.016Z,16.70
2019-05-05T01:15:26.359Z,18.40
2019-05-05T01:17:56.050Z,20.50
2019-05-05T01:20:26.289Z,17.63
2019-05-05T01:22:56.616Z,16.27
2019-05-05T01:25:26.952Z,17.50
2019-05-05T01:27:57.289Z,15.87
2019-05-05T01:30:29.937Z,18.40
2019-05-05T01:33:10.037Z,17.83
2019-05-05T01:35:40.384Z,18.53
2019-05-05T01:38:17.197Z,14.63
2019-05-05T01:41:04.251Z,12.17
2019-05-05T01:43:34.733Z,17.23
2019-05-05T01:46:05.235Z,17.03
2019-05-05T01:48:35.163Z,18.12
2019-05-05T01:51:05.469Z,22.20
2019-05-05T01:53:35.826Z,14.07
2019-05-05T01:56:06.173Z,15.17
2019-05-05T01:58:35.983Z,17.23
2019-05-05T02:01:05.571Z,21.33
2019-05-05T02:03:36.147Z,15.70
2019-05-05T02:06:06.505Z,17.27
2019-05-05T02:08:36.217Z,18.77
2019-05-05T02:11:06.557Z,18.17
2019-05-05T02:13:36.222Z,21.03
2019-05-05T02:16:06.536Z,20.50
2019-05-05T02:18:36.356Z,16.05
2019-05-05T02:21:07.971Z,12.57
2019-05-05T02:23:38.565Z,22.60
2019-05-05T02:26:09.532Z,13.30
2019-05-05T02:28:49.913Z,20.83
2019-05-05T02:31:25.993Z,19.47
2019-05-05T02:33:57.031Z,20.63
2019-05-05T02:36:27.481Z,22.32
2019-05-05T02:38:57.851Z,20.57
2019-05-05T02:41:28.518Z,20.50
2019-05-05T02:43:59.537Z,23.50
2019-05-05T02:46:44.475Z,18.48
2019-05-05T02:49:15.120Z,23.07
2019-05-05T02:51:47.203Z,14.87
2019-05-05T02:54:19.351Z,17.70
2019-05-05T02:56:54.077Z,16.83
2019-05-05T02:59:29.961Z,17.57
2019-05-05T03:02:10.707Z,20.30
2019-05-05T03:04:44.244Z,16.43
2019-05-05T03:07:14.110Z,17.60
2019-05-05T03:09:45.864Z,16.53
2019-05-05T03:12:18.540Z,21.07
2019-05-05T03:14:51.147Z,16.93
2019-05-05T03:17:21.130Z,21.40
2019-05-05T03:19:53.546Z,20.87
2019-05-05T03:22:23.805Z,18.57
2019-05-05T03:24:54.241Z,18.60
2019-05-05T03:27:24.797Z,21.80
2019-05-05T03:29:55.208Z,22.40
2019-05-05T03:32:26.270Z,22.77
2019-05-05T03:34:56.713Z,21.90
2019-05-05T03:37:27.377Z,18.70
2019-05-05T03:40:07.537Z,19.03
2019-05-05T03:42:58.052Z,15.05
2019-05-05T03:45:34.206Z,21.53
2019-05-05T03:48:04.614Z,18.83
2019-05-05T03:50:34.930Z,23.43
2019-05-05T03:53:05.041Z,14.67
2019-05-05T03:55:36.186Z,19.80
2019-05-05T03:58:07.610Z,25.47
2019-05-05T04:01:18.848Z,19.60
2019-05-05T04:03:49.210Z,29.57
2019-05-05T04:06:36.643Z,18.90
2019-05-05T04:09:09.179Z,22.67
2019-05-05T04:11:39.512Z,24.70
2019-05-05T04:14:10.973Z,22.63
2019-05-05T04:16:46.311Z,18.47
2019-05-05T04:19:17.598Z,16.93
2019-05-05T04:21:47.942Z,21.67
2019-05-05T04:24:17.663Z,16.63
2019-05-05T04:26:47.935Z,18.77
2019-05-05T04:29:18.280Z,21.17
2019-05-05T04:31:48.632Z,19.47
2019-05-05T04:34:18.945Z,17.70
2019-05-05T04:36:49.297Z,20.83
2019-05-05T04:39:18.989Z,22.50
2019-05-05T04:41:49.245Z,18.63
2019-05-05T04:44:18.903Z,23.20
2019-05-05T04:46:51.515Z,24.13
2019-05-05T04:49:30.721Z,27.20
2019-05-05T04:52:04.132Z,14.87
2019-05-05T04:54:40.776Z,16.47
2019-05-05T04:57:11.116Z,16.63
2019-05-05T04:59:40.767Z,16.70
2019-05-05T05:02:25.202Z,16.27
2019-05-05T05:04:59.259Z,24.03
2019-05-05T05:07:28.987Z,18.63
2019-05-05T05:09:59.229Z,19.13
2019-05-05T05:12:29.565Z,14.77
2019-05-05T05:14:59.933Z,13.87
2019-05-05T05:17:37.769Z,20.00
2019-05-05T05:20:08.307Z,22.43
2019-05-05T05:22:38.644Z,18.42
2019-05-05T05:25:09.184Z,18.57
2019-05-05T05:27:39.515Z,16.43
2019-05-05T05:30:10.343Z,23.07
2019-05-05T05:32:40.720Z,22.37
2019-05-05T05:35:11.239Z,24.80
2019-05-05T05:37:40.926Z,20.57
2019-05-05T05:40:16.629Z,23.13
2019-05-05T05:42:46.960Z,23.33
2019-05-05T05:45:51.381Z,16.27
2019-05-05T05:48:34.270Z,20.70
2019-05-05T05:51:07.666Z,22.40
2019-05-05T05:53:37.325Z,22.70
2019-05-05T05:56:07.582Z,15.93
2019-05-05T05:58:37.279Z,21.63
2019-05-05T06:01:06.876Z,17.47
2019-05-05T06:03:37.163Z,16.70
2019-05-05T06:06:07.497Z,19.47
2019-05-05T06:08:37.199Z,21.80
2019-05-05T06:11:07.428Z,18.67
2019-05-05T06:13:37.101Z,17.23
2019-05-05T06:16:07.351Z,19.80
2019-05-05T06:18:37.707Z,14.07
2019-05-05T06:21:08.071Z,21.47
2019-05-05T06:23:37.738Z,14.40
2019-05-05T06:26:08.039Z,19.70
2019-05-05T06:28:38.379Z,15.03
2019-05-05T06:31:08.770Z,27.07
2019-05-05T06:33:39.230Z,22.17
2019-05-05T06:36:09.638Z,19.10
2019-05-05T06:38:40.058Z,17.23
2019-05-05T06:41:23.723Z,13.47
2019-05-05T06:44:09.936Z,22.33
2019-05-05T06:47:17.217Z,21.60
2019-05-05T06:49:47.610Z,20.97
2019-05-05T06:52:17.963Z,21.87
2019-05-05T06:54:48.333Z,18.63
2019-05-05T06:57:18.018Z,24.20
2019-05-05T06:59:48.298Z,19.77
2019-05-05T07:02:18.627Z,20.50
2019-05-05T07:04:49.000Z,15.40
2019-05-05T07:07:19.345Z,17.23
2019-05-05T07:09:49.690Z,21.63
2019-05-05T07:12:20.960Z,14.20
2019-05-05T07:14:53.640Z,18.30
2019-05-05T07:17:24.515Z,20.53
2019-05-05T07:19:54.666Z,23.13
2019-05-05T07:22:25.178Z,18.50
2019-05-05T07:24:55.561Z,19.27
2019-05-05T07:27:25.951Z,17.97
2019-05-05T07:29:56.276Z,17.70
2019-05-05T07:32:26.625Z,14.23
2019-05-05T07:35:31.226Z,15.43
2019-05-05T07:38:00.901Z,19.80
2019-05-05T07:40:31.173Z,15.53
2019-05-05T07:43:00.883Z,14.27
2019-05-05T07:45:34.180Z,15.43
2019-05-05T07:48:04.930Z,15.30
2019-05-05T07:50:35.980Z,19.97
2019-05-05T07:53:14.584Z,17.40
2019-05-05T07:55:38.642Z,21.60
2019-05-05T07:58:08.403Z,16.97
2019-05-05T08:00:38.745Z,16.47
2019-05-05T08:03:09.146Z,20.43
2019-05-05T08:05:39.585Z,14.60
2019-05-05T08:08:09.354Z,17.77
2019-05-05T08:10:39.654Z,11.10
2019-05-05T08:13:09.966Z,16.73
2019-05-05T08:15:54.505Z,16.13
2019-05-05T08:18:24.362Z,13.60
2019-05-05T08:20:56.876Z,13.97
2019-05-05T08:23:35.506Z,12.83
2019-05-05T08:26:15.090Z,13.93
2019-05-05T08:28:57.861Z,15.40
2019-05-05T08:31:50.352Z,13.17
2019-05-05T08:34:20.913Z,12.50
2019-05-05T08:36:50.542Z,8.73
2019-05-05T08:39:21.638Z,16.53
2019-05-05T08:41:53.684Z,11.83
2019-05-05T08:44:23.686Z,10.30
2019-05-05T08:46:53.904Z,12.43
2019-05-05T08:49:24.415Z,10.13
2019-05-05T08:51:54.900Z,8.53
2019-05-05T08:54:24.551Z,11.57
2019-05-05T08:56:55.094Z,7.87
2019-05-05T08:59:25.517Z,13.03
2019-05-05T09:01:55.904Z,9.27
2019-05-05T09:04:26.253Z,12.37
2019-05-05T09:06:56.774Z,11.17
2019-05-05T09:09:27.160Z,8.83
2019-05-05T09:11:57.552Z,8.20
2019-05-05T09:14:28.018Z,12.05
2019-05-05T09:17:01.652Z,9.27
2019-05-05T09:19:31.021Z,10.60
2019-05-05T09:22:00.681Z,12.67
2019-05-05T09:24:49.304Z,10.80
2019-05-05T09:27:51.040Z,9.00
2019-05-05T09:30:24.622Z,7.67
2019-05-05T09:32:54.427Z,8.10
2019-05-05T09:35:24.783Z,9.20
2019-05-05T09:37:56.906Z,8.90
2019-05-05T09:40:34.806Z,10.00
2019-05-05T09:43:05.252Z,8.40
2019-05-05T09:45:35.660Z,9.43
2019-05-05T09:48:05.461Z,6.17
2019-05-05T09:50:35.101Z,7.57
2019-05-05T09:53:05.219Z,9.17
2019-05-05T09:55:35.901Z,11.03
2019-05-05T09:58:05.552Z,9.43
2019-05-05T10:00:39.551Z,8.03
2019-05-05T10:03:09.968Z,8.87
2019-05-05T10:05:39.678Z,10.88
2019-05-05T10:08:09.318Z,12.93
2019-05-05T10:10:38.950Z,10.83
2019-05-05T10:13:08.568Z,11.73
2019-05-05T10:15:38.903Z,12.53
2019-05-05T10:18:14.210Z,8.00
2019-05-05T10:20:44.557Z,7.80
2019-05-05T10:23:14.400Z,10.80
2019-05-05T10:25:54.655Z,8.53
2019-05-05T10:28:25.085Z,11.83
2019-05-05T10:30:55.501Z,8.77
2019-05-05T10:33:26.016Z,10.43
2019-05-05T10:35:56.413Z,9.43
2019-05-05T10:38:26.620Z,8.87
2019-05-05T10:40:56.965Z,9.70
2019-05-05T10:43:27.551Z,7.47
2019-05-05T10:45:57.971Z,10.97
2019-05-05T10:48:28.455Z,10.73
2019-05-05T10:50:59.403Z,8.23
2019-05-05T10:53:34.637Z,7.43
2019-05-05T10:56:07.756Z,10.90
2019-05-05T10:58:38.348Z,8.10
2019-05-05T11:01:08.956Z,10.50
2019-05-05T11:03:39.829Z,9.73
2019-05-05T11:06:16.896Z,6.73
2019-05-05T11:08:47.371Z,9.77
2019-05-05T11:11:17.867Z,6.87
2019-05-05T11:13:47.983Z,6.23
2019-05-05T11:16:18.500Z,9.57
2019-05-05T11:18:49.595Z,7.80
2019-05-05T11:21:20.105Z,6.97
2019-05-05T11:23:50.526Z,7.90
2019-05-05T11:26:24.534Z,9.33
2019-05-05T11:28:53.970Z,7.57
2019-05-05T11:31:24.357Z,13.70
2019-05-05T11:34:09.586Z,7.27
2019-05-05T11:37:03.696Z,6.87
2019-05-05T11:39:34.089Z,5.87
2019-05-05T11:42:04.713Z,7.37
2019-05-05T11:44:34.591Z,8.90
2019-05-05T11:47:05.054Z,13.10
2019-05-05T11:49:35.603Z,10.35
2019-05-05T11:52:06.144Z,8.93
2019-05-05T11:54:36.648Z,6.37
2019-05-05T11:57:07.244Z,7.40
2019-05-05T11:59:37.066Z,7.67
2019-05-05T12:02:07.470Z,6.57
2019-05-05T12:04:37.289Z,8.87
2019-05-05T12:07:07.708Z,8.00
2019-05-05T12:09:44.433Z,6.83
2019-05-05T12:12:14.863Z,7.43
2019-05-05T12:14:45.985Z,9.80
2019-05-05T12:17:36.081Z,9.87
2019-05-05T12:20:08.906Z,8.40
2019-05-05T12:22:38.668Z,10.67
2019-05-05T12:25:28.737Z,6.80
2019-05-05T12:28:04.203Z,5.53
2019-05-05T12:30:33.931Z,6.13
2019-05-05T12:33:04.735Z,6.30
2019-05-05T12:35:35.409Z,11.43
2019-05-05T12:38:05.386Z,6.90
2019-05-05T12:40:35.876Z,6.40
2019-05-05T12:43:06.535Z,6.50
2019-05-05T12:45:38.785Z,5.67
2019-05-05T12:48:16.455Z,6.23
2019-05-05T12:50:47.079Z,9.33
2019-05-05T12:53:17.741Z,9.27
2019-05-05T12:55:47.599Z,9.37
2019-05-05T12:58:18.024Z,6.40
2019-05-05T13:00:57.360Z,7.50
2019-05-05T13:03:27.139Z,9.83
2019-05-05T13:05:58.889Z,5.90
2019-05-05T13:08:29.545Z,8.80
2019-05-05T13:11:00.362Z,11.30
2019-05-05T13:13:31.116Z,8.10
2019-05-05T13:16:01.070Z,8.67
2019-05-05T13:18:33.780Z,5.17
2019-05-05T13:21:12.953Z,7.70
2019-05-05T13:24:14.635Z,8.40
2019-05-05T13:26:50.258Z,6.67
2019-05-05T13:29:21.628Z,7.03
2019-05-05T13:31:54.211Z,7.40
2019-05-05T13:34:23.573Z,10.53
2019-05-05T13:36:53.953Z,6.37
2019-05-05T13:39:24.794Z,7.30
2019-05-05T13:41:55.395Z,8.63
2019-05-05T13:44:31.111Z,11.50
2019-05-05T13:47:00.785Z,9.03
2019-05-05T13:49:35.359Z,6.93
2019-05-05T13:52:06.121Z,7.37
2019-05-05T13:54:37.029Z,8.27
2019-05-05T13:57:06.862Z,7.27
2019-05-05T13:59:37.270Z,5.87
2019-05-05T14:02:09.275Z,6.33
2019-05-05T14:04:39.620Z,5.77
2019-05-05T14:07:09.441Z,6.07
2019-05-05T14:09:39.141Z,9.87
2019-05-05T14:12:09.524Z,6.23
2019-05-05T14:14:39.944Z,6.37
2019-05-05T14:17:10.031Z,7.23
2019-05-05T14:19:39.741Z,7.63
2019-05-05T14:22:10.153Z,11.07
2019-05-05T14:24:54.571Z,7.53
2019-05-05T14:27:25.051Z,7.73
2019-05-05T14:30:20.616Z,8.20
2019-05-05T14:32:51.327Z,7.37
2019-05-05T14:35:37.229Z,5.13
2019-05-05T14:38:11.079Z,11.13
2019-05-05T14:40:40.814Z,5.47
2019-05-05T14:43:13.054Z,8.87
2019-05-05T14:45:44.315Z,9.83
2019-05-05T14:48:14.433Z,6.17
2019-05-05T14:50:44.219Z,11.27
2019-05-05T14:53:14.617Z,6.47
2019-05-05T14:55:45.032Z,7.53
2019-05-05T14:58:14.738Z,9.07
2019-05-05T15:00:45.052Z,6.20
2019-05-05T15:03:15.483Z,6.93
2019-05-05T15:05:55.414Z,6.37
2019-05-05T15:08:54.509Z,6.03
2019-05-05T15:11:44.543Z,8.87
2019-05-05T15:14:14.474Z,9.13
2019-05-05T15:16:44.878Z,8.83
2019-05-05T15:19:15.220Z,7.80
2019-05-05T15:21:45.571Z,8.87
2019-05-05T15:24:15.356Z,13.20
2019-05-05T15:26:51.918Z,14.03
2019-05-05T15:29:17.058Z,12.28
2019-05-05T15:31:47.505Z,5.37
2019-05-05T15:34:17.309Z,7.10
2019-05-05T15:36:47.001Z,9.43
2019-05-05T15:39:16.675Z,7.37
2019-05-05T15:41:47.032Z,7.53
2019-05-05T15:44:16.748Z,6.60
2019-05-05T15:46:48.588Z,5.47
2019-05-05T15:49:18.539Z,7.13
2019-05-05T15:51:48.942Z,7.17
2019-05-05T15:54:18.697Z,7.70
2019-05-05T15:57:01.850Z,7.20
2019-05-05T15:59:20.597Z,6.40
2019-05-05T16:01:50.875Z,4.90
2019-05-05T16:04:20.646Z,7.33
2019-05-05T16:06:50.365Z,10.93
2019-05-05T16:09:25.261Z,8.95
2019-05-05T16:11:56.172Z,5.90
2019-05-05T16:14:26.079Z,6.30
2019-05-05T16:17:15.427Z,6.90
2019-05-05T16:20:00.751Z,13.03
2019-05-05T16:22:37.092Z,13.23
2019-05-05T16:25:10.324Z,7.57
2019-05-05T16:27:41.297Z,5.53
2019-05-05T16:30:11.136Z,6.93
2019-05-05T16:32:41.427Z,12.83
2019-05-05T16:35:11.938Z,9.13
2019-05-05T16:37:42.400Z,16.10
2019-05-05T16:40:14.435Z,6.83
2019-05-05T16:42:43.852Z,8.73
2019-05-05T16:45:16.270Z,7.77
2019-05-05T16:47:45.216Z,9.37
2019-05-05T16:50:15.803Z,7.77
2019-05-05T16:52:51.930Z,8.67
2019-05-05T16:55:35.116Z,7.33
2019-05-05T16:58:06.745Z,10.83
2019-05-05T17:00:39.538Z,9.67
2019-05-05T17:03:09.279Z,10.57
2019-05-05T17:05:39.663Z,9.10
2019-05-05T17:08:09.427Z,8.90
2019-05-05T17:10:39.818Z,6.43
2019-05-05T17:13:17.022Z,7.53
2019-05-05T17:16:15.143Z,6.70
2019-05-05T17:18:57.288Z,6.10
2019-05-05T17:21:36.113Z,8.47
2019-05-05T17:24:05.732Z,6.80
2019-05-05T17:26:36.075Z,10.60
2019-05-05T17:29:06.504Z,9.87
2019-05-05T17:31:36.939Z,6.10
2019-05-05T17:34:07.827Z,6.87
2019-05-05T17:36:38.215Z,6.85
2019-05-05T17:39:09.099Z,5.53
2019-05-05T17:42:14.218Z,5.17
2019-05-05T17:45:11.131Z,8.37
2019-05-05T17:47:53.974Z,9.38
2019-05-05T17:50:41.470Z,8.23
2019-05-05T17:53:20.443Z,8.53
2019-05-05T17:55:51.266Z,8.03
2019-05-05T17:58:21.105Z,7.07
2019-05-05T18:00:54.466Z,9.90
2019-05-05T18:03:24.238Z,7.77
2019-05-05T18:06:14.353Z,6.90
2019-05-05T18:08:48.070Z,7.93
2019-05-05T18:11:25.570Z,7.20
2019-05-05T18:13:58.785Z,8.53
2019-05-05T18:16:28.523Z,7.72
2019-05-05T18:18:58.488Z,11.07
2019-05-05T18:21:31.742Z,8.33
2019-05-05T18:24:00.371Z,8.63
2019-05-05T18:26:30.209Z,8.45
2019-05-05T18:28:59.942Z,8.23
2019-05-05T18:31:29.647Z,6.27
2019-05-05T18:33:59.479Z,6.83
2019-05-05T18:36:29.946Z,7.03
2019-05-05T18:39:04.421Z,6.97
2019-05-05T18:41:57.762Z,7.60
2019-05-05T18:44:44.330Z,6.63
2019-05-05T18:47:20.647Z,7.37
2019-05-05T18:49:51.121Z,7.20
2019-05-05T18:52:21.729Z,9.77
2019-05-05T18:54:51.714Z,7.37
2019-05-05T18:57:21.438Z,8.80
2019-05-05T18:59:51.186Z,9.70
2019-05-05T19:02:39.328Z,7.60
2019-05-05T19:05:28.122Z,5.03
2019-05-05T19:08:09.833Z,7.07
2019-05-05T19:10:39.627Z,6.93
2019-05-05T19:13:09.579Z,10.67
2019-05-05T19:15:39.252Z,8.23
2019-05-05T19:18:08.948Z,10.20
2019-05-05T19:20:59.791Z,6.67
2019-05-05T19:23:29.580Z,7.40
2019-05-05T19:25:59.908Z,7.60
2019-05-05T19:28:41.254Z,10.83
2019-05-05T19:31:01.004Z,10.73
2019-05-05T19:33:30.698Z,8.30
2019-05-05T19:36:00.392Z,8.23
2019-05-05T19:38:30.142Z,8.17
2019-05-05T19:40:59.812Z,14.87
2019-05-05T19:43:29.463Z,8.40
2019-05-05T19:45:59.781Z,8.83
2019-05-05T19:48:29.504Z,7.93
2019-05-05T19:51:14.011Z,5.33
2019-05-05T19:53:44.631Z,10.03
2019-05-05T19:56:14.692Z,22.13
2019-05-05T19:59:00.769Z,19.83
2019-05-05T20:01:34.764Z,12.70
2019-05-05T20:03:57.147Z,11.87
2019-05-05T20:06:26.893Z,11.40
2019-05-05T20:08:56.556Z,8.90
2019-05-05T20:11:26.994Z,9.20
2019-05-05T20:14:06.686Z,11.33
2019-05-05T20:16:37.075Z,9.00
2019-05-05T20:19:06.828Z,10.23
2019-05-05T20:21:43.919Z,7.20
2019-05-05T20:24:15.895Z,9.23
2019-05-05T20:26:48.900Z,9.10
2019-05-05T20:29:20.707Z,9.87
2019-05-05T20:31:51.179Z,8.23
2019-05-05T20:34:41.042Z,9.33
2019-05-05T20:37:19.859Z,7.37
2019-05-05T20:39:50.271Z,8.87
2019-05-05T20:42:20.611Z,9.30
2019-05-05T20:44:51.209Z,9.60
2019-05-05T20:47:23.215Z,9.13
2019-05-05T20:49:53.875Z,7.43
2019-05-05T20:52:34.475Z,10.30
2019-05-05T20:55:06.437Z,5.30
2019-05-05T20:57:38.867Z,5.73
2019-05-05T21:00:11.029Z,7.00
2019-05-05T21:02:43.912Z,9.53
2019-05-05T21:05:16.867Z,6.37
2019-05-05T21:07:46.527Z,7.30
2019-05-05T21:10:17.121Z,8.57
2019-05-05T21:12:48.907Z,9.50
2019-05-05T21:15:21.957Z,6.43
2019-05-05T21:17:54.088Z,9.93
2019-05-05T21:20:27.320Z,7.10
2019-05-05T21:23:21.988Z,6.03
2019-05-05T21:25:58.712Z,7.20
2019-05-05T21:28:28.607Z,8.17
2019-05-05T21:31:06.659Z,6.53
2019-05-05T21:33:36.452Z,13.20
2019-05-05T21:36:06.921Z,7.80
2019-05-05T21:38:37.390Z,7.23
2019-05-05T21:41:07.047Z,8.07
2019-05-05T21:43:37.375Z,8.10
2019-05-05T21:46:07.744Z,7.87
2019-05-05T21:48:37.459Z,8.07
2019-05-05T21:51:25.523Z,9.77
2019-05-05T21:54:14.014Z,8.10
2019-05-05T21:56:54.983Z,8.53
2019-05-05T21:59:25.899Z,10.93
2019-05-05T22:01:56.429Z,10.43
2019-05-05T22:04:26.931Z,13.13
2019-05-05T22:06:57.409Z,7.63
2019-05-05T22:09:27.870Z,9.77
2019-05-05T22:11:58.501Z,8.73
2019-05-05T22:14:31.775Z,7.70
2019-05-05T22:17:03.999Z,6.77
2019-05-05T22:19:36.818Z,12.10
2019-05-05T22:22:08.815Z,7.73
2019-05-05T22:24:39.263Z,12.58
2019-05-05T22:27:09.807Z,10.73
2019-05-05T22:29:39.605Z,7.53
2019-05-05T22:32:10.003Z,7.87
2019-05-05T22:34:40.457Z,7.93
2019-05-05T22:37:10.966Z,8.63
2019-05-05T22:39:40.770Z,8.77
2019-05-05T22:42:11.127Z,8.93
2019-05-05T22:44:42.143Z,10.33
2019-05-05T22:47:13.932Z,12.77
2019-05-05T22:49:44.500Z,12.17
2019-05-05T22:52:14.964Z,8.28
2019-05-05T22:54:44.702Z,6.10
2019-05-05T22:57:15.038Z,9.43
2019-05-05T22:59:44.795Z,10.50
2019-05-05T23:02:16.835Z,9.73
2019-05-05T23:04:54.609Z,8.70
2019-05-05T23:07:29.735Z,7.20
2019-05-05T23:09:59.407Z,9.50
2019-05-05T23:12:29.835Z,7.17
2019-05-05T23:15:00.216Z,8.50
2019-05-05T23:17:45.597Z,7.35
2019-05-05T23:21:00.784Z,8.53
2019-05-05T23:23:39.355Z,9.27
2019-05-05T23:26:11.295Z,9.13
2019-05-05T23:28:44.359Z,10.43
2019-05-05T23:31:16.140Z,8.93
2019-05-05T23:33:46.032Z,8.93
2019-05-05T23:36:16.623Z,5.27
2019-05-05T23:38:47.070Z,10.13
2019-05-05T23:41:17.639Z,9.47
2019-05-05T23:43:48.070Z,9.73
2019-05-05T23:46:17.899Z,8.70
2019-05-05T23:48:48.207Z,9.97
2019-05-05T23:51:18.027Z,6.60
2019-05-05T23:53:48.300Z,10.13
2019-05-05T23:56:18.731Z,7.90
2019-05-05T23:58:49.144Z,8.23
